createdAt,value
2023-02-18T00:00:45.222Z,117.20
2023-02-18T00:03:18.540Z,109.13
2023-02-18T00:05:51.829Z,138.55
2023-02-18T00:08:26.688Z,140.25
2023-02-18T00:11:00.236Z,130.85
2023-02-18T00:13:34.220Z,124.47
2023-02-18T00:16:09.998Z,121.90
2023-02-18T00:18:44.103Z,123.70
2023-02-18T00:21:17.576Z,129.60
2023-02-18T00:23:52.168Z,130.60
2023-02-18T00:26:25.956Z,120.50
2023-02-18T00:28:59.310Z,114.30
2023-02-18T00:31:34.939Z,128.35
2023-02-18T00:34:08.245Z,130.35
2023-02-18T00:36:42.024Z,131.30
2023-02-18T00:39:16.608Z,143.68
2023-02-18T00:41:50.523Z,128.98
2023-02-18T00:44:24.060Z,128.82
2023-02-18T00:46:57.413Z,128.18
2023-02-18T00:49:31.272Z,129.18
2023-02-18T00:52:04.992Z,142.68
2023-02-18T00:57:12.753Z,138.55
2023-02-18T00:59:46.484Z,144.65
2023-02-18T01:02:19.923Z,141.35
2023-02-18T01:04:53.154Z,137.02
2023-02-18T01:07:26.455Z,152.65
2023-02-18T01:12:35.394Z,146.57
2023-02-18T01:15:10.368Z,143.10
2023-02-18T01:17:44.326Z,145.65
2023-02-18T01:20:17.866Z,136.38
2023-02-18T01:22:51.205Z,137.10
2023-02-18T01:25:25.761Z,125.82
2023-02-18T01:27:59.379Z,124.35
2023-02-18T01:30:33.335Z,125.85
2023-02-18T01:33:07.365Z,126.75
2023-02-18T01:35:41.796Z,126.22
2023-02-18T01:38:15.228Z,121.47
2023-02-18T01:40:53.299Z,114.03
2023-02-18T01:43:26.497Z,109.57
2023-02-18T01:46:15.594Z,90.30
2023-02-18T01:48:52.826Z,101.68
2023-02-18T01:51:29.744Z,95.35
2023-02-18T01:54:05.844Z,92.72
2023-02-18T01:56:43.820Z,89.63
2023-02-18T01:59:24.499Z,88.13
2023-02-18T02:01:58.739Z,85.65
2023-02-18T02:04:32.066Z,107.75
2023-02-18T02:07:06.253Z,103.90
2023-02-18T02:09:42.490Z,109.93
2023-02-18T02:12:37.470Z,102.80
2023-02-18T02:15:26.510Z,108.32
2023-02-18T02:18:13.682Z,112.20
2023-02-18T02:21:31.257Z,104.88
2023-02-18T02:24:39.270Z,101.07
2023-02-18T02:27:23.247Z,112.43
2023-02-18T02:30:31.366Z,109.80
2023-02-18T02:33:35.217Z,96.63
2023-02-18T02:36:15.371Z,115.00
2023-02-18T02:38:57.562Z,118.78
2023-02-18T02:41:46.648Z,107.03
2023-02-18T02:44:24.329Z,109.78
2023-02-18T02:47:03.380Z,92.05
2023-02-18T02:49:45.977Z,102.10
2023-02-18T02:52:24.365Z,101.93
2023-02-18T02:54:57.692Z,95.88
2023-02-18T03:00:19.859Z,94.75
2023-02-18T03:03:06.509Z,91.70
2023-02-18T03:05:52.133Z,102.10
2023-02-18T03:08:36.043Z,88.65
2023-02-18T03:11:12.577Z,82.93
2023-02-18T03:14:03.794Z,81.72
2023-02-18T03:16:48.242Z,86.00
2023-02-18T03:22:01.249Z,66.05
2023-02-18T03:24:39.372Z,70.85
2023-02-18T03:27:17.681Z,71.32
2023-02-18T03:29:57.416Z,80.95
2023-02-18T03:32:33.061Z,63.20
2023-02-18T03:35:11.425Z,52.97
2023-02-18T03:37:49.514Z,59.92
2023-02-18T03:40:24.293Z,59.40
2023-02-18T03:42:58.722Z,50.40
2023-02-18T03:45:32.024Z,53.67
2023-02-18T03:48:05.850Z,52.08
2023-02-18T03:53:12.482Z,54.83
2023-02-18T03:55:47.235Z,59.17
2023-02-18T03:58:20.735Z,51.97
2023-02-18T04:00:54.380Z,54.45
2023-02-18T04:03:27.645Z,59.92
2023-02-18T04:06:00.938Z,53.25
2023-02-18T04:08:34.189Z,56.88
2023-02-18T04:11:08.922Z,56.95
2023-02-18T04:13:42.778Z,57.85
2023-02-18T04:16:16.816Z,53.88
2023-02-18T04:21:23.759Z,52.33
2023-02-18T04:23:57.034Z,72.05
2023-02-18T04:26:31.714Z,57.45
2023-02-18T04:29:05.128Z,55.78
2023-02-18T04:31:38.651Z,63.60
2023-02-18T04:36:45.435Z,59.10
2023-02-18T04:39:18.644Z,65.13
2023-02-18T04:41:53.680Z,66.30
2023-02-18T04:44:26.954Z,69.70
2023-02-18T04:47:00.558Z,83.63
2023-02-18T04:49:34.301Z,74.22
2023-02-18T04:52:07.908Z,72.35
2023-02-18T04:54:42.170Z,72.53
2023-02-18T04:57:17.014Z,67.70
2023-02-18T04:59:50.210Z,75.45
2023-02-18T05:02:23.453Z,72.82
2023-02-18T05:04:56.789Z,72.75
2023-02-18T05:07:30.327Z,74.95
2023-02-18T05:10:05.281Z,73.45
2023-02-18T05:12:40.424Z,66.93
2023-02-18T05:15:14.112Z,84.90
2023-02-18T05:17:48.737Z,74.65
2023-02-18T05:20:22.336Z,70.78
2023-02-18T05:25:29.246Z,68.57
2023-02-18T05:28:03.820Z,66.85
2023-02-18T05:30:37.193Z,74.47
2023-02-18T05:33:10.635Z,71.28
2023-02-18T05:35:43.998Z,64.43
2023-02-18T05:38:17.370Z,75.20
2023-02-18T05:43:25.692Z,67.22
2023-02-18T05:45:58.978Z,80.47
2023-02-18T05:48:32.244Z,71.20
2023-02-18T05:51:06.273Z,76.38
2023-02-18T05:56:13.224Z,68.73
2023-02-18T05:58:48.331Z,65.20
2023-02-18T06:01:21.620Z,66.13
2023-02-18T06:03:54.949Z,60.38
2023-02-18T06:06:28.520Z,64.43
2023-02-18T06:09:02.163Z,72.07
2023-02-18T06:11:36.043Z,75.63
2023-02-18T06:14:11.094Z,71.97
2023-02-18T06:16:44.555Z,73.75
2023-02-18T06:19:18.076Z,82.32
2023-02-18T06:21:51.440Z,99.72
2023-02-18T06:24:26.165Z,80.05
2023-02-18T06:26:59.420Z,80.85
2023-02-18T06:29:36.001Z,83.80
2023-02-18T06:32:09.566Z,90.28
2023-02-18T06:34:43.209Z,82.53
2023-02-18T06:37:16.776Z,85.28
2023-02-18T06:39:50.204Z,84.25
2023-02-18T06:42:23.639Z,86.40
2023-02-18T06:44:58.496Z,75.32
2023-02-18T06:47:31.778Z,86.10
2023-02-18T06:50:05.514Z,93.57
2023-02-18T06:52:39.178Z,86.60
2023-02-18T06:55:12.898Z,86.30
2023-02-18T06:57:46.431Z,83.97
2023-02-18T07:00:22.905Z,85.10
2023-02-18T07:02:56.269Z,79.45
2023-02-18T07:05:30.029Z,91.63
2023-02-18T07:08:03.406Z,93.72
2023-02-18T07:10:36.924Z,90.50
2023-02-18T07:13:10.976Z,88.85
2023-02-18T07:15:46.512Z,88.78
2023-02-18T07:18:20.499Z,95.88
2023-02-18T07:20:53.762Z,80.78
2023-02-18T07:23:27.241Z,77.10
2023-02-18T07:26:06.034Z,78.85
2023-02-18T07:28:39.823Z,82.30
2023-02-18T07:31:15.090Z,71.63
2023-02-18T07:33:48.399Z,70.85
2023-02-18T07:36:21.819Z,73.30
2023-02-18T07:38:55.026Z,51.53
2023-02-18T07:41:28.295Z,51.15
2023-02-18T07:44:01.691Z,58.90
2023-02-18T07:46:40.541Z,53.70
2023-02-18T07:49:13.924Z,54.10
2023-02-18T07:51:48.745Z,58.67
2023-02-18T07:54:22.382Z,57.15
2023-02-18T07:56:55.972Z,55.10
2023-02-18T07:59:29.685Z,54.92
2023-02-18T08:02:05.531Z,52.85
2023-02-18T08:04:38.820Z,54.85
2023-02-18T08:07:14.855Z,65.80
2023-02-18T08:09:49.163Z,69.57
2023-02-18T08:12:23.401Z,73.82
2023-02-18T08:17:32.067Z,58.78
2023-02-18T08:20:06.325Z,53.33
2023-02-18T08:22:39.890Z,55.88
2023-02-18T08:25:27.540Z,57.15
2023-02-18T08:28:02.367Z,56.72
2023-02-18T08:30:35.810Z,50.63
2023-02-18T08:33:10.831Z,54.15
2023-02-18T08:35:45.066Z,51.80
2023-02-18T08:38:18.373Z,51.67
2023-02-18T08:40:52.720Z,46.17
2023-02-18T08:43:26.416Z,33.38
2023-02-18T08:46:00.468Z,27.83
2023-02-18T08:51:16.762Z,25.23
2023-02-18T08:53:50.699Z,23.63
2023-02-18T08:56:24.521Z,27.13
2023-02-18T08:58:57.749Z,27.88
2023-02-18T09:01:31.507Z,24.17
2023-02-18T09:04:06.513Z,22.27
2023-02-18T09:06:40.059Z,21.77
2023-02-18T09:09:13.291Z,27.42
2023-02-18T09:11:47.563Z,23.88
2023-02-18T09:14:21.744Z,23.40
2023-02-18T09:16:55.282Z,29.95
2023-02-18T09:19:29.950Z,26.90
2023-02-18T09:22:03.179Z,31.40
2023-02-18T09:24:38.664Z,24.85
2023-02-18T09:27:12.439Z,31.95
2023-02-18T09:32:32.381Z,31.33
2023-02-18T09:35:09.578Z,26.88
2023-02-18T09:37:43.200Z,25.95
2023-02-18T09:40:27.291Z,29.38
2023-02-18T09:43:01.779Z,24.50
2023-02-18T09:45:35.452Z,23.40
2023-02-18T09:50:49.174Z,25.75
2023-02-18T09:53:23.619Z,23.77
2023-02-18T09:55:58.604Z,25.70
2023-02-18T09:58:34.708Z,21.20
2023-02-18T10:01:16.814Z,18.55
2023-02-18T10:03:50.581Z,17.55
2023-02-18T10:06:28.380Z,10.00
2023-02-18T10:09:04.980Z,9.93
2023-02-18T10:11:41.945Z,12.60
2023-02-18T10:14:16.992Z,13.10
2023-02-18T10:16:53.842Z,7.60
2023-02-18T10:19:35.716Z,12.60
2023-02-18T10:22:15.170Z,13.52
2023-02-18T10:24:52.706Z,11.23
2023-02-18T10:27:28.139Z,14.82
2023-02-18T10:30:13.962Z,12.48
2023-02-18T10:32:48.664Z,14.00
2023-02-18T10:35:26.500Z,13.43
2023-02-18T10:38:11.799Z,19.45
2023-02-18T10:40:55.441Z,11.45
2023-02-18T10:43:37.691Z,13.90
2023-02-18T10:46:18.702Z,13.05
2023-02-18T10:49:04.606Z,9.90
2023-02-18T10:51:41.198Z,12.15
2023-02-18T10:54:17.036Z,10.15
2023-02-18T10:56:51.808Z,11.73
2023-02-18T10:59:28.424Z,9.75
2023-02-18T11:02:05.203Z,12.15
2023-02-18T11:04:41.130Z,9.02
2023-02-18T11:07:20.300Z,10.63
2023-02-18T11:09:57.042Z,12.43
2023-02-18T11:12:41.220Z,9.38
2023-02-18T11:17:55.308Z,10.35
2023-02-18T11:20:33.622Z,7.82
2023-02-18T11:23:21.819Z,6.00
2023-02-18T11:26:03.434Z,13.18
2023-02-18T11:28:46.184Z,7.18
2023-02-18T11:31:26.641Z,10.38
2023-02-18T11:34:03.946Z,8.40
2023-02-18T11:36:38.808Z,7.20
2023-02-18T11:39:20.829Z,8.13
2023-02-18T11:41:59.398Z,6.88
2023-02-18T11:44:35.701Z,7.30
2023-02-18T11:47:24.697Z,7.90
2023-02-18T11:50:17.636Z,8.45
2023-02-18T11:52:54.008Z,5.20
2023-02-18T11:55:30.605Z,7.97
2023-02-18T11:58:08.681Z,5.45
2023-02-18T12:00:44.418Z,4.60
2023-02-18T12:03:29.730Z,8.18
2023-02-18T12:06:07.048Z,6.45
2023-02-18T12:08:50.098Z,6.05
2023-02-18T12:11:30.038Z,5.72
2023-02-18T12:14:05.017Z,5.15
2023-02-18T12:16:47.097Z,6.43
2023-02-18T12:19:38.430Z,15.07
2023-02-18T12:22:17.731Z,5.38
2023-02-18T12:25:08.811Z,8.52
2023-02-18T12:27:50.453Z,4.75
2023-02-18T12:30:58.291Z,4.90
2023-02-18T12:33:43.690Z,4.90
2023-02-18T12:36:29.234Z,5.43
2023-02-18T12:39:14.938Z,5.07
2023-02-18T12:42:10.534Z,7.93
2023-02-18T12:44:57.780Z,7.68
2023-02-18T12:47:45.274Z,7.70
2023-02-18T12:50:46.787Z,8.40
2023-02-18T12:53:35.204Z,6.28
2023-02-18T12:56:36.379Z,11.77
2023-02-18T12:59:17.508Z,3.58
2023-02-18T13:02:01.951Z,4.38
2023-02-18T13:04:48.229Z,4.38
2023-02-18T13:07:45.473Z,5.60
2023-02-18T13:10:38.094Z,8.02
2023-02-18T13:13:15.673Z,3.28
2023-02-18T13:15:54.334Z,8.02
2023-02-18T13:18:33.979Z,3.78
2023-02-18T13:21:12.167Z,4.38
2023-02-18T13:23:53.076Z,4.53
2023-02-18T13:26:28.072Z,6.15
2023-02-18T13:29:19.296Z,5.32
2023-02-18T13:32:03.373Z,6.63
2023-02-18T13:37:27.917Z,4.70
2023-02-18T13:40:02.558Z,8.07
2023-02-18T13:42:38.809Z,6.40
2023-02-18T13:45:34.011Z,4.75
2023-02-18T13:48:24.190Z,5.00
2023-02-18T13:51:04.671Z,7.88
2023-02-18T13:53:42.830Z,5.30
2023-02-18T13:56:24.013Z,5.35
2023-02-18T13:59:01.972Z,7.55
2023-02-18T14:01:44.389Z,5.00
2023-02-18T14:04:37.577Z,5.10
2023-02-18T14:07:45.461Z,9.38
2023-02-18T14:10:39.595Z,5.50
2023-02-18T14:13:40.259Z,5.43
2023-02-18T14:16:13.817Z,7.57
2023-02-18T14:19:28.194Z,4.20
2023-02-18T14:22:29.179Z,5.78
2023-02-18T14:25:05.678Z,5.35
2023-02-18T14:27:42.110Z,6.10
2023-02-18T14:30:25.344Z,6.18
2023-02-18T14:33:02.071Z,4.78
2023-02-18T14:35:39.857Z,6.10
2023-02-18T14:38:40.500Z,4.68
2023-02-18T14:41:24.088Z,4.25
2023-02-18T14:44:34.059Z,8.15
2023-02-18T14:47:28.965Z,5.13
2023-02-18T14:50:05.132Z,3.40
2023-02-18T14:52:43.952Z,5.50
2023-02-18T14:55:21.844Z,4.10
2023-02-18T14:57:57.444Z,3.15
2023-02-18T15:00:36.522Z,4.35
2023-02-18T15:03:14.885Z,4.38
2023-02-18T15:05:48.457Z,4.68
2023-02-18T15:08:22.921Z,6.00
2023-02-18T15:11:00.886Z,5.75
2023-02-18T15:13:38.317Z,5.20
2023-02-18T15:16:19.826Z,6.63
2023-02-18T15:18:56.954Z,4.28
2023-02-18T15:21:32.769Z,4.22
2023-02-18T15:24:09.470Z,6.53
2023-02-18T15:26:45.872Z,6.43
2023-02-18T15:29:21.523Z,7.80
2023-02-18T15:31:58.987Z,7.85
2023-02-18T15:34:36.768Z,8.50
2023-02-18T15:37:14.092Z,6.30
2023-02-18T15:39:48.157Z,6.28
2023-02-18T15:42:27.989Z,7.07
2023-02-18T15:45:06.593Z,10.93
2023-02-18T15:47:45.314Z,8.60
2023-02-18T15:50:20.707Z,8.73
2023-02-18T15:52:56.365Z,10.77
2023-02-18T15:55:33.329Z,15.43
2023-02-18T15:58:13.083Z,16.15
2023-02-18T16:00:50.372Z,13.50
2023-02-18T16:03:27.239Z,15.27
2023-02-18T16:06:18.915Z,23.30
2023-02-18T16:08:59.247Z,19.80
2023-02-18T16:11:39.511Z,23.52
2023-02-18T16:14:26.247Z,26.92
2023-02-18T16:17:08.488Z,21.98
2023-02-18T16:20:03.465Z,20.73
2023-02-18T16:22:44.152Z,16.23
2023-02-18T16:25:20.316Z,16.98
2023-02-18T16:27:55.925Z,22.95
2023-02-18T16:30:32.596Z,25.98
2023-02-18T16:33:06.001Z,29.65
2023-02-18T16:35:49.418Z,29.55
2023-02-18T16:38:25.492Z,32.63
2023-02-18T16:40:58.885Z,33.13
2023-02-18T16:43:33.266Z,30.02
2023-02-18T16:46:10.465Z,30.20
2023-02-18T16:48:46.489Z,35.78
2023-02-18T16:51:25.129Z,34.05
2023-02-18T16:53:58.600Z,45.40
2023-02-18T16:56:35.526Z,55.38
2023-02-18T16:59:09.203Z,43.95
2023-02-18T17:01:46.088Z,35.17
2023-02-18T17:04:20.490Z,33.75
2023-02-18T17:06:55.420Z,28.98
2023-02-18T17:09:28.770Z,25.88
2023-02-18T17:12:05.274Z,29.67
2023-02-18T17:14:39.130Z,31.52
2023-02-18T17:17:13.967Z,27.75
2023-02-18T17:19:47.379Z,25.05
2023-02-18T17:22:22.282Z,27.70
2023-02-18T17:24:55.550Z,27.27
2023-02-18T17:27:29.108Z,43.50
2023-02-18T17:30:02.601Z,38.85
2023-02-18T17:32:36.298Z,45.20
2023-02-18T17:35:11.260Z,39.35
2023-02-18T17:37:46.130Z,42.85
2023-02-18T17:40:21.726Z,49.47
2023-02-18T17:42:56.606Z,57.33
2023-02-18T17:45:35.132Z,58.88
2023-02-18T17:48:08.551Z,66.47
2023-02-18T17:50:42.783Z,61.55
2023-02-18T17:53:19.211Z,76.13
2023-02-18T17:55:54.430Z,66.50
2023-02-18T17:58:27.805Z,65.65
2023-02-18T18:01:01.361Z,60.28
2023-02-18T18:03:34.699Z,54.67
2023-02-18T18:06:15.557Z,59.05
2023-02-18T18:08:50.847Z,59.00
2023-02-18T18:11:26.331Z,53.67
2023-02-18T18:14:00.562Z,57.40
2023-02-18T18:16:33.872Z,60.50
2023-02-18T18:19:07.400Z,55.88
2023-02-18T18:21:41.451Z,61.83
2023-02-18T18:24:16.348Z,59.10
2023-02-18T18:26:49.730Z,60.55
2023-02-18T18:29:23.008Z,59.58
2023-02-18T18:31:56.655Z,68.45
2023-02-18T18:34:30.341Z,58.65
2023-02-18T18:37:03.494Z,64.20
2023-02-18T18:39:38.298Z,58.53
2023-02-18T18:42:13.568Z,58.03
2023-02-18T18:44:46.832Z,57.17
2023-02-18T18:47:20.196Z,55.80
2023-02-18T18:49:53.787Z,54.60
2023-02-18T18:52:27.375Z,49.58
2023-02-18T18:55:02.196Z,48.10
2023-02-18T18:57:35.920Z,50.42
2023-02-18T19:00:11.472Z,38.60
2023-02-18T19:02:44.647Z,36.70
2023-02-18T19:05:21.981Z,40.58
2023-02-18T19:07:55.629Z,34.97
2023-02-18T19:13:07.814Z,36.38
2023-02-18T19:15:42.533Z,34.17
2023-02-18T19:18:18.129Z,38.65
2023-02-18T19:20:51.590Z,40.80
2023-02-18T19:23:25.359Z,38.58
2023-02-18T19:26:00.654Z,36.63
2023-02-18T19:28:34.422Z,46.20
2023-02-18T19:31:11.689Z,42.38
2023-02-18T19:33:46.997Z,45.65
2023-02-18T19:36:20.341Z,45.78
2023-02-18T19:38:53.710Z,48.35
2023-02-18T19:41:28.736Z,46.80
2023-02-18T19:44:02.166Z,55.50
2023-02-18T19:46:35.358Z,54.67
2023-02-18T19:49:08.811Z,53.05
2023-02-18T19:51:42.061Z,48.63
2023-02-18T19:54:15.499Z,52.53
2023-02-18T19:56:50.265Z,58.75
2023-02-18T19:59:23.854Z,56.03
2023-02-18T20:01:57.077Z,55.67
2023-02-18T20:04:31.932Z,55.08
2023-02-18T20:07:05.244Z,59.05
2023-02-18T20:09:39.481Z,59.45
2023-02-18T20:12:14.989Z,59.00
2023-02-18T20:14:51.053Z,50.03
2023-02-18T20:17:25.011Z,56.00
2023-02-18T20:19:58.251Z,71.82
2023-02-18T20:22:31.542Z,66.50
2023-02-18T20:25:05.316Z,60.40
2023-02-18T20:30:32.986Z,48.20
2023-02-18T20:33:06.567Z,53.63
2023-02-18T20:35:40.062Z,50.42
2023-02-18T20:38:13.603Z,50.65
2023-02-18T20:40:46.735Z,55.88
2023-02-18T20:43:21.261Z,56.83
2023-02-18T20:45:54.588Z,53.47
2023-02-18T20:48:27.753Z,50.78
2023-02-18T20:51:04.908Z,43.97
2023-02-18T20:53:39.243Z,47.85
2023-02-18T20:56:13.160Z,48.55
2023-02-18T21:01:21.781Z,52.38
2023-02-18T21:03:55.189Z,51.17
2023-02-18T21:06:29.414Z,49.42
2023-02-18T21:09:02.950Z,46.15
2023-02-18T21:11:36.597Z,52.60
2023-02-18T21:16:46.099Z,55.13
2023-02-18T21:19:19.528Z,49.40
2023-02-18T21:21:52.774Z,50.70
2023-02-18T21:24:26.144Z,55.17
2023-02-18T21:26:59.769Z,48.97
2023-02-18T21:29:34.416Z,48.80
2023-02-18T21:32:08.144Z,49.03
2023-02-18T21:34:41.471Z,47.88
2023-02-18T21:37:14.699Z,56.88
2023-02-18T21:39:47.911Z,51.63
2023-02-18T21:42:21.405Z,51.00
2023-02-18T21:44:58.090Z,47.75
2023-02-18T21:47:31.372Z,47.13
2023-02-18T21:50:05.103Z,57.33
2023-02-18T21:52:38.371Z,52.03
2023-02-18T21:55:12.119Z,52.17
2023-02-18T22:00:21.017Z,55.15
2023-02-18T22:02:54.753Z,55.92
2023-02-18T22:05:30.185Z,54.88
2023-02-18T22:08:03.451Z,53.33
2023-02-18T22:10:39.726Z,69.95
2023-02-18T22:13:14.069Z,57.42
2023-02-18T22:15:56.963Z,63.25
2023-02-18T22:18:32.048Z,62.58
2023-02-18T22:21:08.885Z,73.13
2023-02-18T22:23:42.828Z,63.08
2023-02-18T22:26:16.428Z,63.55
2023-02-18T22:28:54.420Z,66.93
2023-02-18T22:31:30.509Z,68.65
2023-02-18T22:34:04.285Z,65.53
2023-02-18T22:36:38.257Z,57.08
2023-02-18T22:39:13.122Z,60.65
2023-02-18T22:41:46.473Z,53.17
2023-02-18T22:44:20.412Z,46.78
2023-02-18T22:46:56.242Z,44.83
2023-02-18T22:49:29.619Z,47.00
2023-02-18T22:52:02.952Z,53.42
2023-02-18T22:54:36.656Z,54.13
2023-02-18T22:57:09.920Z,55.53
2023-02-18T22:59:43.233Z,52.80
2023-02-18T23:02:17.725Z,50.30
2023-02-18T23:04:50.925Z,50.38
2023-02-18T23:07:24.747Z,38.35
2023-02-18T23:09:58.229Z,38.53
2023-02-18T23:12:32.746Z,43.78
2023-02-18T23:15:06.481Z,45.10
2023-02-18T23:20:14.729Z,44.97
2023-02-18T23:22:48.315Z,45.50
2023-02-18T23:25:21.584Z,47.78
2023-02-18T23:27:55.007Z,43.85
2023-02-18T23:30:28.968Z,53.25
2023-02-18T23:33:03.679Z,52.72
2023-02-18T23:35:36.889Z,56.30
2023-02-18T23:38:10.496Z,52.58
2023-02-18T23:40:43.708Z,58.58
2023-02-18T23:43:17.109Z,52.47
2023-02-18T23:45:50.658Z,59.58
2023-02-18T23:48:25.610Z,56.45
2023-02-18T23:51:02.394Z,61.05
2023-02-18T23:53:38.233Z,57.78
2023-02-18T23:56:14.928Z,58.97
2023-02-18T23:58:52.308Z,58.10
